Latest Weather Observations for Sellicks Hill

IDS60801

Issued at 2:21 am CDT Monday 18 November 2019 (issued every 10 minutes, with the page automatically refreshed every 10 minutes)

About weather observations | Map of weather stations | Latest weather observations for SA | Other Formats
Station Details ID: 023886 Name: MOUNT TERRIBLE RADAR Lat: -35.33 Lon: 138.50 Height: 385.7 m
Data from the previous 72 hours. | See also: Recent months at Sellicks Hill
Date/Time
CDT
Temp
°C
App
Temp
°C
Dew
Point
°C
Rel
Hum
%
Delta-T
°C
Wind Press
QNH
hPa
Press
MSL
hPa
Rain since
9am
mm
Dir  Spd
km/h
Gust
km/h
Spd
kts
Gust
kts
18/02:00am - - - - - NNW 4 6 2 3 - - -
18/01:30am - - - - - WNW 4 6 2 3 - - -
18/01:00am - - - - - W 2 4 1 2 - - -
18/12:30am - - - - - SW 4 6 2 3 - - -
18/12:00am - - - - - SSW 4 6 2 3 - - -
 
Date/Time
CDT
Temp
°C
App
Temp
°C
Dew
Point
°C
Rel
Hum
%
Delta-T
°C
Wind Press
QNH
hPa
Press
MSL
hPa
Rain since
9am
mm
Dir  Spd
km/h
Gust
km/h
Spd
kts
Gust
kts
17/11:30pm - - - - - ESE 4 6 2 3 - - -
17/11:00pm - - - - - ESE 9 11 5 6 - - -
17/10:30pm - - - - - ESE 13 17 7 9 - - -
17/10:00pm - - - - - SE 15 20 8 11 - - -
17/09:30pm - - - - - SE 15 20 8 11 - - -
17/09:00pm - - - - - SE 11 17 6 9 - - -
17/08:30pm - - - - - SE 17 20 9 11 - - -
17/08:00pm - - - - - SSE 17 19 9 10 - - -
17/07:30pm - - - - - SSE 19 22 10 12 - - -
17/07:00pm - - - - - SSE 20 24 11 13 - - -
17/06:30pm - - - - - SSE 24 30 13 16 - - -
17/06:00pm - - - - - W 4 9 2 5 - - -
17/05:30pm - - - - - W 6 11 3 6 - - -
17/05:00pm - - - - - W 4 9 2 5 - - -
17/04:30pm - - - - - WSW 4 9 2 5 - - -
17/04:00pm - - - - - W 6 13 3 7 - - -
17/03:30pm - - - - - W 6 13 3 7 - - -
17/03:00pm - - - - - ESE 9 15 5 8 - - -
17/02:30pm - - - - - SE 11 20 6 11 - - -
17/02:00pm - - - - - SSE 13 24 7 13 - - -
17/01:30pm - - - - - SSE 15 28 8 15 - - -
17/01:00pm - - - - - SE 11 19 6 10 - - -
17/12:30pm - - - - - SE 11 24 6 13 - - -
17/12:00pm - - - - - SE 11 20 6 11 - - -
17/11:30am - - - - - SSE 19 28 10 15 - - -
17/11:00am - - - - - SSE 17 24 9 13 - - -
17/10:30am - - - - - SSE 15 26 8 14 - - -
17/10:00am - - - - - S 17 30 9 16 - - -
17/09:30am - - - - - S 9 17 5 9 - - -
17/09:00am - - - - - S 11 22 6 12 - - -
17/08:30am - - - - - S 15 22 8 12 - - -
17/08:00am - - - - - S 11 17 6 9 - - -
17/07:30am - - - - - S 7 9 4 5 - - -
17/07:00am - - - - - SSW 6 9 3 5 - - -
17/06:30am - - - - - S 7 11 4 6 - - -
17/06:00am - - - - - S 11 13 6 7 - - -
17/05:30am - - - - - SSE 11 13 6 7 - - -
17/05:00am - - - - - SSE 11 15 6 8 - - -
17/04:30am - - - - - S 11 15 6 8 - - -
17/04:00am - - - - - S 6 11 3 6 - - -
17/03:30am - - - - - SSW 4 6 2 3 - - -
17/03:00am - - - - - SSW 4 7 2 4 - - -
17/02:30am - - - - - S 4 7 2 4 - - -
17/02:00am - - - - - SSE 9 11 5 6 - - -
17/01:30am - - - - - S 9 13 5 7 - - -
17/01:00am - - - - - S 7 11 4 6 - - -
17/12:30am - - - - - S 11 19 6 10 - - -
17/12:00am - - - - - S 15 22 8 12 - - -
 
Date/Time
CDT
Temp
°C
App
Temp
°C
Dew
Point
°C
Rel
Hum
%
Delta-T
°C
Wind Press
QNH
hPa
Press
MSL
hPa
Rain since
9am
mm
Dir  Spd
km/h
Gust
km/h
Spd
kts
Gust
kts
16/11:30pm - - - - - S 13 24 7 13 - - -
16/11:00pm - - - - - S 15 19 8 10 - - -
16/10:30pm - - - - - SSE 19 24 10 13 - - -
16/10:00pm - - - - - SSE 22 24 12 13 - - -
16/09:30pm - - - - - S 28 32 15 17 - - -
16/09:00pm - - - - - SSE 26 32 14 17 - - -
16/08:30pm - - - - - S 26 33 14 18 - - -
16/08:00pm - - - - - SSE 26 32 14 17 - - -
16/07:30pm - - - - - S 24 33 13 18 - - -
16/07:00pm - - - - - S 19 28 10 15 - - -
16/06:30pm - - - - - S 20 30 11 16 - - -
16/06:00pm - - - - - S 19 28 10 15 - - -
16/05:30pm - - - - - S 17 28 9 15 - - -
16/05:00pm - - - - - S 17 32 9 17 - - -
16/04:30pm - - - - - S 19 33 10 18 - - -
16/04:00pm - - - - - S 15 24 8 13 - - -
16/03:30pm - - - - - S 19 30 10 16 - - -
16/03:00pm - - - - - S 15 26 8 14 - - -
16/02:30pm - - - - - SSW 7 13 4 7 - - -
16/02:00pm - - - - - W 9 20 5 11 - - -
16/01:30pm - - - - - W 9 22 5 12 - - -
16/01:00pm - - - - - WSW 7 19 4 10 - - -
16/12:30pm - - - - - W 9 17 5 9 - - -
16/12:00pm - - - - - WNW 6 13 3 7 - - -
16/11:30am - - - - - SSW 6 11 3 6 - - -
16/11:00am - - - - - S 7 15 4 8 - - -
16/10:30am - - - - - SSE 7 13 4 7 - - -
16/10:00am - - - - - SE 6 11 3 6 - - -
16/09:30am - - - - - S 7 15 4 8 - - -
16/09:00am - - - - - SSW 6 11 3 6 - - -
16/08:30am - - - - - S 7 15 4 8 - - -
16/08:00am - - - - - SSE 11 15 6 8 - - -
16/07:30am - - - - - SSE 11 15 6 8 - - -
16/07:00am - - - - - SSE 13 13 7 7 - - -
16/06:30am - - - - - SSE 15 17 8 9 - - -
16/06:00am - - - - - SSE 15 17 8 9 - - -
16/05:30am - - - - - S 15 17 8 9 - - -
16/05:00am - - - - - SSE 13 15 7 8 - - -
16/04:30am - - - - - SSE 15 17 8 9 - - -
16/04:00am - - - - - S 13 17 7 9 - - -
16/03:30am - - - - - SSE 20 22 11 12 - - -
16/03:00am - - - - - SSE 13 15 7 8 - - -
16/02:30am - - - - - SSE 15 19 8 10 - - -
16/02:00am - - - - - SSE 20 24 11 13 - - -
16/01:30am - - - - - S 9 19 5 10 - - -
16/01:00am - - - - - S 9 13 5 7 - - -
16/12:30am - - - - - S 9 13 5 7 - - -
16/12:00am - - - - - SSW 6 13 3 7 - - -
 
Date/Time
CDT
Temp
°C
App
Temp
°C
Dew
Point
°C
Rel
Hum
%
Delta-T
°C
Wind Press
QNH
hPa
Press
MSL
hPa
Rain since
9am
mm
Dir  Spd
km/h
Gust
km/h
Spd
kts
Gust
kts
15/11:30pm - - - - - SSW 6 11 3 6 - - -
15/11:00pm - - - - - SW 6 9 3 5 - - -
15/10:30pm - - - - - SSW 7 13 4 7 - - -
15/10:00pm - - - - - SSW 7 13 4 7 - - -
15/09:30pm - - - - - S 17 24 9 13 - - -
15/09:00pm - - - - - S 15 22 8 12 - - -
15/08:30pm - - - - - S 11 17 6 9 - - -
15/08:00pm - - - - - S 11 20 6 11 - - -
15/07:30pm - - - - - S 13 20 7 11 - - -
15/07:00pm - - - - - SSW 9 15 5 8 - - -
15/06:30pm - - - - - SSW 7 13 4 7 - - -
15/06:00pm - - - - - WNW 6 11 3 6 - - -
15/05:30pm - - - - - W 7 15 4 8 - - -
15/05:00pm - - - - - W 7 17 4 9 - - -
15/04:30pm - - - - - W 7 15 4 8 - - -
15/04:00pm - - - - - WNW 9 19 5 10 - - -
15/03:30pm - - - - - NW 7 15 4 8 - - -
15/03:00pm - - - - - WNW 9 17 5 9 - - -
15/02:30pm - - - - - WNW 9 19 5 10 - - -
15/02:00pm - - - - - WNW 9 19 5 10 - - -
15/01:30pm - - - - - WNW 7 15 4 8 - - -
15/01:00pm - - - - - WNW 9 19 5 10 - - -
15/12:30pm - - - - - WNW 9 17 5 9 - - -
15/12:00pm - - - - - WNW 11 19 6 10 - - -
15/11:30am - - - - - WNW 11 20 6 11 - - -
15/11:00am - - - - - W 7 19 4 10 - - -
15/10:30am - - - - - W 9 20 5 11 - - -
15/10:00am - - - - - WNW 9 20 5 11 - - -
15/09:30am - - - - - W 11 24 6 13 - - -
15/09:00am - - - - - WNW 9 19 5 10 - - -
15/08:30am - - - - - WNW 11 20 6 11 - - -
15/08:00am - - - - - W 9 20 5 11 - - -
15/07:30am - - - - - WNW 7 19 4 10 - - -
15/07:00am - - - - - WNW 7 19 4 10 - - -
15/06:30am - - - - - WNW 9 19 5 10 - - -
15/06:00am - - - - - WNW 9 24 5 13 - - -
15/05:30am - - - - - WNW 11 28 6 15 - - -
15/05:00am - - - - - W 7 15 4 8 - - -
15/04:30am - - - - - W 6 15 3 8 - - -
15/04:00am - - - - - W 7 17 4 9 - - -
15/03:30am - - - - - W 11 20 6 11 - - -
15/03:00am - - - - - W 7 19 4 10 - - -
15/02:30am - - - - - WNW 11 22 6 12 - - -

Other formats

Comma delimited format used in spreadsheet applications
http://www.bom.gov.au/fwo/IDS60801/IDS60801.95679.axf

JavaScript Object Notation format (JSON) in row-major order
http://www.bom.gov.au/fwo/IDS60801/IDS60801.95679.json

Data quality

Most of these data are generated automatically and are frequently updated. Quality checks on data are not normally performed. It is possible for incorrect values to appear. Refer to information at About Latest Weather Observations and please check the disclaimer before using these data.